createdAt,value
2018-11-01T00:00:12.317Z,1007.66
2018-11-01T00:01:20.962Z,1007.6
2018-11-01T00:02:29.865Z,1007.58
2018-11-01T00:03:38.507Z,1007.53
2018-11-01T00:04:47.143Z,1007.58
2018-11-01T00:05:55.785Z,1007.56
2018-11-01T00:07:04.424Z,1007.54
2018-11-01T00:08:13.064Z,1007.55
2018-11-01T00:09:21.700Z,1007.56
2018-11-01T00:10:30.342Z,1007.5
2018-11-01T00:11:39.246Z,1007.53
2018-11-01T00:12:47.886Z,1007.51
2018-11-01T00:13:56.529Z,1007.51
2018-11-01T00:15:05.165Z,1007.51
2018-11-01T00:16:14.081Z,1007.55
2018-11-01T00:17:22.994Z,1007.52
2018-11-01T00:18:31.633Z,1007.53
2018-11-01T00:19:40.263Z,1007.51
2018-11-01T00:20:48.907Z,1007.52
2018-11-01T00:21:57.543Z,1007.46
2018-11-01T00:23:06.461Z,1007.46
2018-11-01T00:24:15.362Z,1007.46
2018-11-01T00:25:24.284Z,1007.45
2018-11-01T00:26:33.187Z,1007.43
2018-11-01T00:27:41.833Z,1007.41
2018-11-01T00:28:50.752Z,1007.39
2018-11-01T00:29:59.662Z,1007.35
2018-11-01T00:31:08.306Z,1007.29
2018-11-01T00:32:16.951Z,1007.28
2018-11-01T00:33:25.598Z,1007.3
2018-11-01T00:34:34.232Z,1007.26
2018-11-01T00:35:42.873Z,1007.25
2018-11-01T00:36:51.512Z,1007.26
2018-11-01T00:38:00.157Z,1007.29
2018-11-01T00:39:09.057Z,1007.29
2018-11-01T00:40:17.708Z,1007.28
2018-11-01T00:41:26.885Z,1007.36
2018-11-01T00:42:35.527Z,1007.36
2018-11-01T00:43:44.164Z,1007.39
2018-11-01T00:44:52.804Z,1007.36
2018-11-01T00:46:01.446Z,1007.35
2018-11-01T00:47:10.092Z,1007.37
2018-11-01T00:48:18.725Z,1007.36
2018-11-01T00:49:27.364Z,1007.35
2018-11-01T00:50:36.007Z,1007.36
2018-11-01T00:51:44.649Z,1007.36
2018-11-01T00:52:53.285Z,1007.36
2018-11-01T00:54:01.924Z,1007.36
2018-11-01T00:55:10.563Z,1007.33
2018-11-01T00:56:19.468Z,1007.33
2018-11-01T00:57:28.102Z,1007.31
2018-11-01T00:58:36.749Z,1007.27
2018-11-01T00:59:45.384Z,1007.31
2018-11-01T01:00:54.028Z,1007.35
2018-11-01T01:02:02.934Z,1007.3
2018-11-01T01:03:11.578Z,1007.37
2018-11-01T01:04:20.741Z,1007.4
2018-11-01T01:05:29.379Z,1007.38
2018-11-01T01:06:38.283Z,1007.38
2018-11-01T01:07:46.921Z,1007.31
2018-11-01T01:08:55.558Z,1007.24
2018-11-01T01:10:04.194Z,1007.22
2018-11-01T01:11:12.839Z,1007.23
2018-11-01T01:12:21.749Z,1007.18
2018-11-01T01:13:30.390Z,1007.28
2018-11-01T01:14:39.024Z,1007.25
2018-11-01T01:15:47.669Z,1007.26
2018-11-01T01:16:56.580Z,1007.3
2018-11-01T01:18:05.221Z,1007.29
2018-11-01T01:19:14.120Z,1007.29
2018-11-01T01:20:22.763Z,1007.35
2018-11-01T01:21:31.404Z,1007.28
2018-11-01T01:22:40.053Z,1007.21
2018-11-01T01:23:48.960Z,1007.23
2018-11-01T01:24:57.592Z,1007.14
2018-11-01T01:26:06.236Z,1007.07
2018-11-01T01:27:14.871Z,1007.04
2018-11-01T01:28:23.517Z,1007.02
2018-11-01T01:29:32.159Z,1007.02
2018-11-01T01:30:40.800Z,1006.99
2018-11-01T01:31:49.439Z,1007
2018-11-01T01:32:58.082Z,1007.03
2018-11-01T01:34:06.719Z,1006.99
2018-11-01T01:35:15.361Z,1007
2018-11-01T01:36:23.997Z,1006.99
2018-11-01T01:37:32.640Z,1007.03
2018-11-01T01:38:41.321Z,1006.99
2018-11-01T01:39:49.915Z,1006.97
2018-11-01T01:40:58.551Z,1006.94
2018-11-01T01:42:07.192Z,1006.97
2018-11-01T01:43:15.835Z,1006.89
2018-11-01T01:44:24.474Z,1006.94
2018-11-01T01:45:33.116Z,1006.92
2018-11-01T01:46:41.750Z,1006.93
2018-11-01T01:47:50.397Z,1006.93
2018-11-01T01:48:59.032Z,1006.88
2018-11-01T01:50:07.677Z,1006.9
2018-11-01T01:51:16.307Z,1006.88
2018-11-01T01:52:24.953Z,1006.89
2018-11-01T01:53:33.589Z,1006.9
2018-11-01T01:54:42.232Z,1006.89
2018-11-01T01:55:50.864Z,1006.83
2018-11-01T01:56:59.774Z,1006.85
2018-11-01T01:58:08.703Z,1006.91
2018-11-01T01:59:17.608Z,1006.89
2018-11-01T02:00:26.251Z,1006.89
2018-11-01T02:01:34.880Z,1006.97
2018-11-01T02:02:43.524Z,1006.99
2018-11-01T02:03:52.158Z,1006.97
2018-11-01T02:05:00.806Z,1006.96
2018-11-01T02:06:09.438Z,1006.94
2018-11-01T02:07:18.084Z,1006.9
2018-11-01T02:08:26.718Z,1006.92
2018-11-01T02:09:35.365Z,1006.93
2018-11-01T02:10:43.993Z,1006.91
2018-11-01T02:11:52.717Z,1006.9
2018-11-01T02:13:01.280Z,1006.88
2018-11-01T02:14:09.930Z,1006.86
2018-11-01T02:15:18.571Z,1006.84
2018-11-01T02:16:27.200Z,1006.77
2018-11-01T02:17:35.837Z,1006.8
2018-11-01T02:18:44.751Z,1006.77
2018-11-01T02:19:53.398Z,1006.8
2018-11-01T02:21:02.289Z,1006.72
2018-11-01T02:22:10.934Z,1006.66
2018-11-01T02:23:19.569Z,1006.7
2018-11-01T02:24:28.216Z,1006.7
2018-11-01T02:25:36.851Z,1006.65
2018-11-01T02:26:45.494Z,1006.64
2018-11-01T02:27:54.125Z,1006.64
2018-11-01T02:29:02.775Z,1006.63
2018-11-01T02:30:11.682Z,1006.66
2018-11-01T02:31:21.398Z,1006.58
2018-11-01T02:32:30.011Z,1006.64
2018-11-01T02:33:38.657Z,1006.62
2018-11-01T02:34:47.302Z,1006.62
2018-11-01T02:35:55.954Z,1006.58
2018-11-01T02:37:04.596Z,1006.6
2018-11-01T02:38:13.353Z,1006.59
2018-11-01T02:39:22.206Z,1006.57
2018-11-01T02:40:30.840Z,1006.62
2018-11-01T02:41:39.757Z,1006.56
2018-11-01T02:42:48.387Z,1006.59
2018-11-01T02:43:57.554Z,1006.55
2018-11-01T02:45:06.205Z,1006.57
2018-11-01T02:46:14.851Z,1006.59
2018-11-01T02:47:23.488Z,1006.61
2018-11-01T02:48:32.405Z,1006.63
2018-11-01T02:49:41.044Z,1006.65
2018-11-01T02:50:49.687Z,1006.58
2018-11-01T02:51:58.334Z,1006.58
2018-11-01T02:53:06.977Z,1006.58
2018-11-01T02:54:15.613Z,1006.55
2018-11-01T02:55:24.255Z,1006.54
2018-11-01T02:56:32.901Z,1006.51
2018-11-01T02:57:41.543Z,1006.49
2018-11-01T02:58:50.188Z,1006.45
2018-11-01T02:59:58.820Z,1006.45
2018-11-01T03:01:07.466Z,1006.44
2018-11-01T03:02:16.106Z,1006.42
2018-11-01T03:03:25.007Z,1006.37
2018-11-01T03:04:33.653Z,1006.39
2018-11-01T03:05:42.302Z,1006.35
2018-11-01T03:06:50.939Z,1006.36
2018-11-01T03:07:59.581Z,1006.36
2018-11-01T03:09:08.217Z,1006.34
2018-11-01T03:10:16.864Z,1006.27
2018-11-01T03:11:25.508Z,1006.28
2018-11-01T03:12:34.152Z,1006.27
2018-11-01T03:13:43.080Z,1006.28
2018-11-01T03:14:51.716Z,1006.25
2018-11-01T03:16:00.353Z,1006.2
2018-11-01T03:17:09.344Z,1006.21
2018-11-01T03:18:17.903Z,1006.17
2018-11-01T03:19:26.542Z,1006.13
2018-11-01T03:20:35.446Z,1006.09
2018-11-01T03:21:44.351Z,1006.14
2018-11-01T03:22:53.003Z,1006.15
2018-11-01T03:24:01.645Z,1006.13
2018-11-01T03:25:10.295Z,1006.16
2018-11-01T03:26:19.219Z,1006.14
2018-11-01T03:27:27.844Z,1006.15
2018-11-01T03:28:36.485Z,1006.14
2018-11-01T03:29:45.131Z,1006.14
2018-11-01T03:30:54.035Z,1006.17
2018-11-01T03:32:02.958Z,1006.12
2018-11-01T03:33:12.404Z,1006.09
2018-11-01T03:34:21.049Z,1006.06
2018-11-01T03:35:29.690Z,1006
2018-11-01T03:36:38.588Z,1006
2018-11-01T03:37:47.233Z,1006.02
2018-11-01T03:38:56.007Z,1006.05
2018-11-01T03:40:04.907Z,1006.08
2018-11-01T03:41:13.542Z,1006.06
2018-11-01T03:42:22.191Z,1006.08
2018-11-01T03:43:30.828Z,1006.07
2018-11-01T03:44:39.474Z,1006.05
2018-11-01T03:45:48.179Z,1006.05
2018-11-01T03:46:56.750Z,1006.07
2018-11-01T03:48:05.680Z,1006.05
2018-11-01T03:49:14.319Z,1006.06
2018-11-01T03:50:22.974Z,1006.04
2018-11-01T03:51:31.599Z,1006.05
2018-11-01T03:52:40.242Z,1006.01
2018-11-01T03:53:48.892Z,1006
2018-11-01T03:54:58.273Z,1005.99
2018-11-01T03:56:07.168Z,1005.99
2018-11-01T03:57:16.086Z,1005.95
2018-11-01T03:58:24.723Z,1005.97
2018-11-01T03:59:33.643Z,1005.92
2018-11-01T04:00:42.272Z,1005.85
2018-11-01T04:01:50.912Z,1005.83
2018-11-01T04:02:59.550Z,1005.83
2018-11-01T04:04:08.199Z,1005.78
2018-11-01T04:05:17.109Z,1005.77
2018-11-01T04:06:26.008Z,1005.77
2018-11-01T04:07:34.644Z,1005.75
2018-11-01T04:08:43.550Z,1005.77
2018-11-01T04:09:52.196Z,1005.76
2018-11-01T04:11:00.843Z,1005.69
2018-11-01T04:12:10.286Z,1005.75
2018-11-01T04:13:18.923Z,1005.81
2018-11-01T04:14:27.570Z,1005.88
2018-11-01T04:15:36.472Z,1005.89
2018-11-01T04:16:45.133Z,1005.95
2018-11-01T04:17:53.745Z,1005.89
2018-11-01T04:19:02.394Z,1005.85
2018-11-01T04:20:11.574Z,1005.87
2018-11-01T04:21:20.204Z,1005.79
2018-11-01T04:22:28.836Z,1005.78
2018-11-01T04:23:38.015Z,1005.8
2018-11-01T04:24:46.667Z,1005.74
2018-11-01T04:25:55.312Z,1005.7
2018-11-01T04:27:04.226Z,1005.67
2018-11-01T04:28:12.859Z,1005.65
2018-11-01T04:29:21.769Z,1005.69
2018-11-01T04:30:30.656Z,1005.73
2018-11-01T04:31:39.570Z,1005.74
2018-11-01T04:32:48.196Z,1005.7
2018-11-01T04:33:57.137Z,1005.71
2018-11-01T04:35:06.295Z,1005.73
2018-11-01T04:36:14.970Z,1005.72
2018-11-01T04:37:23.588Z,1005.7
2018-11-01T04:38:32.228Z,1005.68
2018-11-01T04:39:41.148Z,1005.67
2018-11-01T04:40:49.783Z,1005.58
2018-11-01T04:41:58.420Z,1005.58
2018-11-01T04:43:07.088Z,1005.56
2018-11-01T04:44:16.003Z,1005.62
2018-11-01T04:45:25.292Z,1005.56
2018-11-01T04:46:33.923Z,1005.56
2018-11-01T04:47:42.613Z,1005.54
2018-11-01T04:48:51.202Z,1005.53
2018-11-01T04:49:59.849Z,1005.5
2018-11-01T04:51:08.479Z,1005.48
2018-11-01T04:52:17.117Z,1005.49
2018-11-01T04:53:25.757Z,1005.5
2018-11-01T04:54:34.400Z,1005.48
2018-11-01T04:55:43.035Z,1005.45
2018-11-01T04:56:51.936Z,1005.46
2018-11-01T04:58:00.573Z,1005.44
2018-11-01T04:59:09.219Z,1005.45
2018-11-01T05:00:17.860Z,1005.44
2018-11-01T05:01:26.496Z,1005.45
2018-11-01T05:02:35.402Z,1005.45
2018-11-01T05:03:44.055Z,1005.46
2018-11-01T05:04:52.691Z,1005.45
2018-11-01T05:06:01.632Z,1005.44
2018-11-01T05:07:10.271Z,1005.47
2018-11-01T05:08:18.898Z,1005.49
2018-11-01T05:09:27.548Z,1005.53
2018-11-01T05:10:36.181Z,1005.52
2018-11-01T05:11:44.831Z,1005.58
2018-11-01T05:12:53.525Z,1005.59
2018-11-01T05:14:02.733Z,1005.56
2018-11-01T05:15:11.446Z,1005.54
2018-11-01T05:16:20.027Z,1005.56
2018-11-01T05:17:28.654Z,1005.58
2018-11-01T05:18:37.295Z,1005.63
2018-11-01T05:19:45.940Z,1005.67
2018-11-01T05:20:54.580Z,1005.68
2018-11-01T05:22:03.220Z,1005.72
2018-11-01T05:23:11.848Z,1005.72
2018-11-01T05:24:20.491Z,1005.71
2018-11-01T05:25:29.128Z,1005.73
2018-11-01T05:26:38.035Z,1005.7
2018-11-01T05:27:46.668Z,1005.66
2018-11-01T05:28:55.310Z,1005.69
2018-11-01T05:30:03.946Z,1005.69
2018-11-01T05:31:12.592Z,1005.66
2018-11-01T05:32:21.224Z,1005.72
2018-11-01T05:33:29.862Z,1005.71
2018-11-01T05:34:38.499Z,1005.71
2018-11-01T05:35:47.156Z,1005.75
2018-11-01T05:36:56.052Z,1005.78
2018-11-01T05:38:04.740Z,1005.82
2018-11-01T05:39:13.323Z,1005.83
2018-11-01T05:40:22.231Z,1005.84
2018-11-01T05:41:30.869Z,1005.82
2018-11-01T05:42:39.774Z,1005.8
2018-11-01T05:43:48.413Z,1005.83
2018-11-01T05:44:57.308Z,1005.81
2018-11-01T05:46:05.950Z,1005.84
2018-11-01T05:47:14.583Z,1005.86
2018-11-01T05:48:23.222Z,1005.81
2018-11-01T05:49:31.856Z,1005.77
2018-11-01T05:50:40.762Z,1005.8
2018-11-01T05:51:49.401Z,1005.81
2018-11-01T05:52:58.046Z,1005.78
2018-11-01T05:54:06.946Z,1005.74
2018-11-01T05:55:15.587Z,1005.71
2018-11-01T05:56:24.227Z,1005.68
2018-11-01T05:57:32.869Z,1005.63
2018-11-01T05:58:41.510Z,1005.62
2018-11-01T05:59:50.215Z,1005.63
2018-11-01T06:00:58.783Z,1005.61
2018-11-01T06:02:07.423Z,1005.59
2018-11-01T06:03:16.064Z,1005.62
2018-11-01T06:04:24.698Z,1005.57
2018-11-01T06:05:33.658Z,1005.59
2018-11-01T06:06:42.243Z,1005.59
2018-11-01T06:07:50.891Z,1005.59
2018-11-01T06:09:00.060Z,1005.58
2018-11-01T06:10:08.975Z,1005.57
2018-11-01T06:11:17.609Z,1005.58
2018-11-01T06:12:26.280Z,1005.57
2018-11-01T06:13:34.888Z,1005.57
2018-11-01T06:14:43.526Z,1005.56
2018-11-01T06:15:52.419Z,1005.6
2018-11-01T06:17:01.057Z,1005.58
2018-11-01T06:18:09.701Z,1005.58
2018-11-01T06:19:18.344Z,1005.56
2018-11-01T06:20:27.052Z,1005.54
2018-11-01T06:21:35.901Z,1005.59
2018-11-01T06:22:44.544Z,1005.6
2018-11-01T06:23:53.178Z,1005.62
2018-11-01T06:25:01.824Z,1005.7
2018-11-01T06:26:10.726Z,1005.74
2018-11-01T06:27:19.367Z,1005.8
2018-11-01T06:28:28.004Z,1005.87
2018-11-01T06:29:36.649Z,1005.89
2018-11-01T06:30:45.283Z,1005.9
2018-11-01T06:31:54.182Z,1005.91
2018-11-01T06:33:03.082Z,1005.93
2018-11-01T06:34:11.722Z,1005.92
2018-11-01T06:35:20.362Z,1005.97
2018-11-01T06:36:28.991Z,1005.95
2018-11-01T06:37:37.630Z,1005.97
2018-11-01T06:38:46.271Z,1005.99
2018-11-01T06:39:55.180Z,1005.96
2018-11-01T06:41:04.075Z,1005.96
2018-11-01T06:42:12.712Z,1005.92
2018-11-01T06:43:21.357Z,1005.92
2018-11-01T06:44:30.056Z,1005.92
2018-11-01T06:45:38.635Z,1005.91
2018-11-01T06:46:47.536Z,1005.95
2018-11-01T06:47:56.172Z,1005.96
2018-11-01T06:49:04.815Z,1005.99
2018-11-01T06:50:13.451Z,1005.98
2018-11-01T06:51:22.093Z,1005.98
2018-11-01T06:52:30.755Z,1006.04
2018-11-01T06:53:39.743Z,1006
2018-11-01T06:54:48.381Z,1006.05
2018-11-01T06:55:57.020Z,1006.07
2018-11-01T06:57:05.664Z,1006.07
2018-11-01T06:58:14.626Z,1006.13
2018-11-01T06:59:23.840Z,1006.09
2018-11-01T07:00:32.723Z,1006.08
2018-11-01T07:01:41.622Z,1006.05
2018-11-01T07:02:50.257Z,1006.02
2018-11-01T07:03:58.898Z,1006
2018-11-01T07:05:07.541Z,1006.01
2018-11-01T07:06:16.440Z,1006.04
2018-11-01T07:07:25.073Z,1006.04
2018-11-01T07:08:33.713Z,1006.01
2018-11-01T07:09:42.353Z,1006.03
2018-11-01T07:10:50.999Z,1006.03
2018-11-01T07:11:59.638Z,1006.06
2018-11-01T07:13:08.275Z,1006.05
2018-11-01T07:14:16.914Z,1006.04
2018-11-01T07:15:25.554Z,1006.04
2018-11-01T07:16:34.196Z,1006.08
2018-11-01T07:17:43.015Z,1006.08
2018-11-01T07:18:51.475Z,1006.05
2018-11-01T07:20:00.115Z,1006.05
2018-11-01T07:21:08.764Z,1006.03
2018-11-01T07:22:17.398Z,1006.02
2018-11-01T07:23:26.036Z,1006
2018-11-01T07:24:34.672Z,1005.96
2018-11-01T07:25:43.351Z,1005.98
2018-11-01T07:26:52.297Z,1005.96
2018-11-01T07:28:00.935Z,1005.94
2018-11-01T07:29:09.832Z,1005.94
2018-11-01T07:30:18.728Z,1005.91
2018-11-01T07:31:27.632Z,1005.85
2018-11-01T07:32:36.592Z,1005.81
2018-11-01T07:33:45.598Z,1005.8
2018-11-01T07:34:54.234Z,1005.8
2018-11-01T07:36:03.148Z,1005.76
2018-11-01T07:37:12.042Z,1005.71
2018-11-01T07:38:20.943Z,1005.73
2018-11-01T07:39:29.574Z,1005.71
2018-11-01T07:40:38.220Z,1005.69
2018-11-01T07:41:46.854Z,1005.66
2018-11-01T07:42:55.495Z,1005.63
2018-11-01T07:44:04.124Z,1005.62
2018-11-01T07:45:12.764Z,1005.6
2018-11-01T07:46:21.670Z,1005.55
2018-11-01T07:47:30.311Z,1005.54
2018-11-01T07:48:39.027Z,1005.52
2018-11-01T07:49:47.577Z,1005.56
2018-11-01T07:50:56.482Z,1005.54
2018-11-01T07:52:05.115Z,1005.51
2018-11-01T07:53:13.765Z,1005.47
2018-11-01T07:54:22.658Z,1005.48
2018-11-01T07:55:31.560Z,1005.42
2018-11-01T07:56:40.193Z,1005.43
2018-11-01T07:57:48.841Z,1005.42
2018-11-01T07:58:57.476Z,1005.43
2018-11-01T08:00:06.118Z,1005.45
2018-11-01T08:01:14.753Z,1005.46
2018-11-01T08:02:23.401Z,1005.46
2018-11-01T08:03:32.037Z,1005.44
2018-11-01T08:04:40.671Z,1005.44
2018-11-01T08:05:49.336Z,1005.43
2018-11-01T08:06:58.507Z,1005.49
2018-11-01T08:08:07.153Z,1005.4
2018-11-01T08:09:16.050Z,1005.38
2018-11-01T08:10:24.694Z,1005.39
2018-11-01T08:11:33.331Z,1005.35
2018-11-01T08:12:41.974Z,1005.36
2018-11-01T08:13:50.608Z,1005.37
2018-11-01T08:14:59.515Z,1005.36
2018-11-01T08:16:08.142Z,1005.36
2018-11-01T08:17:16.789Z,1005.39
2018-11-01T08:18:25.426Z,1005.37
2018-11-01T08:19:34.175Z,1005.37
2018-11-01T08:20:42.790Z,1005.37
2018-11-01T08:21:51.767Z,1005.38
2018-11-01T08:23:00.410Z,1005.38
2018-11-01T08:24:09.055Z,1005.36
2018-11-01T08:25:17.691Z,1005.32
2018-11-01T08:26:26.325Z,1005.31
2018-11-01T08:27:34.965Z,1005.33
2018-11-01T08:28:43.941Z,1005.36
2018-11-01T08:29:52.594Z,1005.34
2018-11-01T08:31:01.223Z,1005.42
2018-11-01T08:32:09.870Z,1005.38
2018-11-01T08:33:18.762Z,1005.36
2018-11-01T08:34:27.660Z,1005.33
2018-11-01T08:35:36.307Z,1005.39
2018-11-01T08:36:45.204Z,1005.41
2018-11-01T08:37:54.637Z,1005.41
2018-11-01T08:39:03.266Z,1005.44
2018-11-01T08:40:11.906Z,1005.43
2018-11-01T08:41:20.549Z,1005.45
2018-11-01T08:42:29.195Z,1005.45
2018-11-01T08:43:37.839Z,1005.37
2018-11-01T08:44:46.733Z,1005.34
2018-11-01T08:45:55.375Z,1005.39
2018-11-01T08:47:04.014Z,1005.42
2018-11-01T08:48:12.659Z,1005.41
2018-11-01T08:49:21.417Z,1005.4
2018-11-01T08:50:29.931Z,1005.44
2018-11-01T08:51:38.565Z,1005.46
2018-11-01T08:52:47.215Z,1005.45
2018-11-01T08:53:56.119Z,1005.44
2018-11-01T08:55:04.763Z,1005.39
2018-11-01T08:56:13.664Z,1005.4
2018-11-01T08:57:22.326Z,1005.4
2018-11-01T08:58:30.959Z,1005.41
2018-11-01T08:59:40.125Z,1005.39
2018-11-01T09:00:49.028Z,1005.42
2018-11-01T09:01:57.666Z,1005.41
2018-11-01T09:03:06.315Z,1005.39
2018-11-01T09:04:15.107Z,1005.35
2018-11-01T09:05:23.594Z,1005.35
2018-11-01T09:06:32.225Z,1005.33
2018-11-01T09:07:41.012Z,1005.35
2018-11-01T09:08:50.116Z,1005.37
2018-11-01T09:09:58.759Z,1005.34
2018-11-01T09:11:07.661Z,1005.37
2018-11-01T09:12:16.313Z,1005.32
2018-11-01T09:13:25.057Z,1005.31
2018-11-01T09:14:33.636Z,1005.32
2018-11-01T09:15:42.223Z,1005.25
2018-11-01T09:16:50.863Z,1005.25
2018-11-01T09:17:59.510Z,1005.24
2018-11-01T09:19:08.165Z,1005.25
2018-11-01T09:20:16.797Z,1005.26
2018-11-01T09:21:25.691Z,1005.26
2018-11-01T09:22:34.334Z,1005.29
2018-11-01T09:23:42.968Z,1005.29
2018-11-01T09:24:51.618Z,1005.27
2018-11-01T09:26:00.250Z,1005.28
2018-11-01T09:27:08.941Z,1005.27
2018-11-01T09:28:17.811Z,1005.29
2018-11-01T09:29:26.460Z,1005.27
2018-11-01T09:30:35.629Z,1005.25
2018-11-01T09:31:44.275Z,1005.24
2018-11-01T09:32:52.921Z,1005.28
2018-11-01T09:34:01.560Z,1005.32
2018-11-01T09:35:10.198Z,1005.33
2018-11-01T09:36:18.839Z,1005.3
2018-11-01T09:37:27.476Z,1005.24
2018-11-01T09:38:36.376Z,1005.23
2018-11-01T09:39:45.023Z,1005.22
2018-11-01T09:40:53.664Z,1005.18
2018-11-01T09:42:02.306Z,1005.17
2018-11-01T09:43:10.944Z,1005.16
2018-11-01T09:44:19.594Z,1005.17
2018-11-01T09:45:28.239Z,1005.14
2018-11-01T09:46:37.227Z,1005.13
2018-11-01T09:47:45.852Z,1005.1
2018-11-01T09:48:54.168Z,1005.14
2018-11-01T09:50:03.065Z,1005.13
2018-11-01T09:51:11.982Z,1005.1
2018-11-01T09:52:20.618Z,1005.1
2018-11-01T09:53:29.528Z,1005.1
2018-11-01T09:54:38.174Z,1005.08
2018-11-01T09:55:47.256Z,1005.12
2018-11-01T09:56:56.383Z,1005.05
2018-11-01T09:58:05.018Z,1005.09
2018-11-01T09:59:13.658Z,1005.08
2018-11-01T10:00:22.300Z,1005.06
2018-11-01T10:01:30.945Z,1005.09
2018-11-01T10:02:39.582Z,1005.13
2018-11-01T10:03:48.224Z,1005.1
2018-11-01T10:04:56.872Z,1005.13
2018-11-01T10:06:05.565Z,1005.13
2018-11-01T10:07:14.157Z,1005.12
2018-11-01T10:08:22.801Z,1005.11
2018-11-01T10:09:31.440Z,1005.18
2018-11-01T10:10:40.088Z,1005.16
2018-11-01T10:11:48.724Z,1005.12
2018-11-01T10:12:57.365Z,1005.12
2018-11-01T10:14:06.005Z,1005.12
2018-11-01T10:15:14.769Z,1005.11
2018-11-01T10:16:23.991Z,1005.1
2018-11-01T10:17:32.950Z,1005.11
2018-11-01T10:18:41.120Z,1005.09
2018-11-01T10:19:50.021Z,1005.1
2018-11-01T10:20:58.937Z,1005.1
2018-11-01T10:22:07.718Z,1005.08
2018-11-01T10:23:16.602Z,1005.11
2018-11-01T10:24:25.238Z,1005.04
2018-11-01T10:25:33.883Z,1005.06
2018-11-01T10:26:42.522Z,1005.05
2018-11-01T10:27:51.324Z,1005
2018-11-01T10:28:59.802Z,1005.03
2018-11-01T10:30:08.453Z,1005.06
2018-11-01T10:31:17.379Z,1005.07
2018-11-01T10:32:26.025Z,1005.11
2018-11-01T10:33:34.673Z,1005.12
2018-11-01T10:34:43.306Z,1005.13
2018-11-01T10:35:51.954Z,1005.07
2018-11-01T10:37:00.586Z,1005.1
2018-11-01T10:38:09.238Z,1005.05
2018-11-01T10:39:17.869Z,1005.04
2018-11-01T10:40:26.518Z,1005.03
2018-11-01T10:41:35.437Z,1005.03
2018-11-01T10:42:44.090Z,1005.05
2018-11-01T10:43:52.728Z,1005.04
2018-11-01T10:45:01.636Z,1004.99
2018-11-01T10:46:10.274Z,1005.03
2018-11-01T10:47:19.192Z,1005.04
2018-11-01T10:48:27.832Z,1005.05
2018-11-01T10:49:36.469Z,1005.06
2018-11-01T10:50:45.113Z,1005.05
2018-11-01T10:51:53.753Z,1004.99
2018-11-01T10:53:02.668Z,1004.93
2018-11-01T10:54:11.327Z,1004.9
2018-11-01T10:55:19.952Z,1004.85
2018-11-01T10:56:28.589Z,1004.87
2018-11-01T10:57:37.503Z,1004.89
2018-11-01T10:58:46.143Z,1004.93
2018-11-01T10:59:55.150Z,1004.92
2018-11-01T11:01:04.736Z,1004.97
2018-11-01T11:02:13.314Z,1004.9
2018-11-01T11:03:21.953Z,1004.86
2018-11-01T11:04:30.597Z,1004.88
2018-11-01T11:05:39.228Z,1004.84
2018-11-01T11:06:47.871Z,1004.87
2018-11-01T11:07:56.791Z,1004.85
2018-11-01T11:09:05.960Z,1004.88
2018-11-01T11:10:14.605Z,1004.86
2018-11-01T11:11:23.509Z,1004.81
2018-11-01T11:12:32.158Z,1004.8
2018-11-01T11:13:40.795Z,1004.77
2018-11-01T11:14:49.707Z,1004.76
2018-11-01T11:15:58.340Z,1004.77
2018-11-01T11:17:06.987Z,1004.72
2018-11-01T11:18:15.624Z,1004.76
2018-11-01T11:19:24.275Z,1004.73
2018-11-01T11:20:33.074Z,1004.75
2018-11-01T11:21:41.562Z,1004.73
2018-11-01T11:22:50.204Z,1004.7
2018-11-01T11:23:58.853Z,1004.67
2018-11-01T11:25:07.495Z,1004.71
2018-11-01T11:26:16.134Z,1004.7
2018-11-01T11:27:25.037Z,1004.71
2018-11-01T11:28:33.682Z,1004.7
2018-11-01T11:29:42.333Z,1004.7
2018-11-01T11:30:50.974Z,1004.73
2018-11-01T11:31:59.617Z,1004.73
2018-11-01T11:33:08.258Z,1004.7
2018-11-01T11:34:16.905Z,1004.71
2018-11-01T11:35:25.608Z,1004.75
2018-11-01T11:36:34.687Z,1004.77
2018-11-01T11:37:43.326Z,1004.73
2018-11-01T11:38:51.989Z,1004.7
2018-11-01T11:40:00.982Z,1004.73
2018-11-01T11:41:09.632Z,1004.69
2018-11-01T11:42:18.271Z,1004.67
2018-11-01T11:43:26.918Z,1004.62
2018-11-01T11:44:35.559Z,1004.65
2018-11-01T11:45:44.469Z,1004.64
2018-11-01T11:46:53.113Z,1004.59
2018-11-01T11:48:01.753Z,1004.6
2018-11-01T11:49:10.394Z,1004.6
2018-11-01T11:50:19.040Z,1004.6
2018-11-01T11:51:27.816Z,1004.67
2018-11-01T11:52:36.334Z,1004.69
2018-11-01T11:53:44.979Z,1004.67
2018-11-01T11:54:54.164Z,1004.66
2018-11-01T11:56:02.809Z,1004.64
2018-11-01T11:57:11.513Z,1004.63
2018-11-01T11:58:20.510Z,1004.6
2018-11-01T11:59:29.150Z,1004.58
2018-11-01T12:00:37.802Z,1004.56
2018-11-01T12:01:46.443Z,1004.51
2018-11-01T12:02:55.403Z,1004.48
2018-11-01T12:04:04.044Z,1004.46
2018-11-01T12:05:12.727Z,1004.39
2018-11-01T12:06:21.809Z,1004.38
2018-11-01T12:07:30.981Z,1004.31
2018-11-01T12:08:39.622Z,1004.3
2018-11-01T12:09:48.262Z,1004.25
2018-11-01T12:10:57.174Z,1004.26
2018-11-01T12:12:05.817Z,1004.24
2018-11-01T12:13:14.461Z,1004.2
2018-11-01T12:14:23.222Z,1004.21
2018-11-01T12:15:31.741Z,1004.2
2018-11-01T12:16:40.393Z,1004.17
2018-11-01T12:17:49.030Z,1004.15
2018-11-01T12:18:57.671Z,1004.12
2018-11-01T12:20:06.313Z,1004.11
2018-11-01T12:21:14.953Z,1004.15
2018-11-01T12:22:23.661Z,1004.18
2018-11-01T12:23:32.699Z,1004.18
2018-11-01T12:24:41.336Z,1004.12
2018-11-01T12:25:49.977Z,1004.15
2018-11-01T12:26:58.621Z,1004.13
2018-11-01T12:28:07.270Z,1004.12
2018-11-01T12:29:15.909Z,1004.16
2018-11-01T12:30:24.551Z,1004.14
2018-11-01T12:31:33.194Z,1004.12
2018-11-01T12:32:41.833Z,1004.12
2018-11-01T12:33:50.480Z,1004.09
2018-11-01T12:34:59.179Z,1004.01
2018-11-01T12:36:07.811Z,1003.97
2018-11-01T12:37:16.405Z,1003.91
2018-11-01T12:38:25.049Z,1003.89
2018-11-01T12:39:33.691Z,1003.86
2018-11-01T12:40:42.338Z,1003.82
2018-11-01T12:41:50.976Z,1003.79
2018-11-01T12:42:59.884Z,1003.76
2018-11-01T12:44:08.522Z,1003.75
2018-11-01T12:45:17.439Z,1003.74
2018-11-01T12:46:26.086Z,1003.79
2018-11-01T12:47:34.725Z,1003.76
2018-11-01T12:48:43.368Z,1003.8
2018-11-01T12:49:52.111Z,1003.87
2018-11-01T12:51:01.159Z,1003.85
2018-11-01T12:52:09.797Z,1003.79
2018-11-01T12:53:18.441Z,1003.75
2018-11-01T12:54:27.082Z,1003.73
2018-11-01T12:55:35.729Z,1003.73
2018-11-01T12:56:44.376Z,1003.74
2018-11-01T12:57:53.017Z,1003.76
2018-11-01T12:59:01.656Z,1003.82
2018-11-01T13:00:10.295Z,1003.79
2018-11-01T13:01:18.943Z,1003.84
2018-11-01T13:02:27.653Z,1003.85
2018-11-01T13:03:36.230Z,1003.85
2018-11-01T13:04:44.866Z,1003.83
2018-11-01T13:05:53.515Z,1003.87
2018-11-01T13:07:02.157Z,1003.93
2018-11-01T13:08:10.812Z,1003.97
2018-11-01T13:09:19.711Z,1004.07
2018-11-01T13:10:28.392Z,1004.13
2018-11-01T13:11:37.361Z,1004.17
2018-11-01T13:12:46.005Z,1004.22
2018-11-01T13:13:54.912Z,1004.21
2018-11-01T13:15:03.563Z,1004.18
2018-11-01T13:16:12.205Z,1004.17
2018-11-01T13:17:21.390Z,1004.16
2018-11-01T13:18:30.299Z,1004.09
2018-11-01T13:19:39.224Z,1004.07
2018-11-01T13:20:48.126Z,1004.07
2018-11-01T13:21:56.772Z,1004.1
2018-11-01T13:23:05.418Z,1004.11
2018-11-01T13:24:14.061Z,1004.15
2018-11-01T13:25:22.968Z,1004.14
2018-11-01T13:26:31.612Z,1004.18
2018-11-01T13:27:40.261Z,1004.2
2018-11-01T13:28:48.893Z,1004.2
2018-11-01T13:29:57.540Z,1004.16
2018-11-01T13:31:06.451Z,1004.13
2018-11-01T13:32:15.102Z,1004.12
2018-11-01T13:33:23.753Z,1004.12
2018-11-01T13:34:32.669Z,1004.15
2018-11-01T13:35:41.617Z,1004.16
2018-11-01T13:36:50.258Z,1004.25
2018-11-01T13:37:59.440Z,1004.29
2018-11-01T13:39:08.076Z,1004.37
2018-11-01T13:40:17.645Z,1004.39
2018-11-01T13:41:26.021Z,1004.42
2018-11-01T13:42:34.609Z,1004.41
2018-11-01T13:43:43.247Z,1004.42
2018-11-01T13:44:51.892Z,1004.44
2018-11-01T13:46:00.523Z,1004.46
2018-11-01T13:47:09.227Z,1004.41
2018-11-01T13:48:18.336Z,1004.42
2018-11-01T13:49:28.195Z,1004.36
2018-11-01T13:50:37.082Z,1004.29
2018-11-01T13:51:45.987Z,1004.29
2018-11-01T13:52:54.899Z,1004.34
2018-11-01T13:54:03.544Z,1004.35